Melber, Kentucky
Current Conditions -  °F | °C
As of 6:53 AM on Thursday 18 Dec 2014 (Local Time) from KPAH Reporting Station
Haze Haze  
Wind Chill: 28°   Ceiling: 600
Heat Index: 33°   Visibility: 6mi
Dew Point: 31°   Wind: 6mph
Humidity: 92%   Direction: 50°NE
Pressure: 30.25"   Gusts: NA
Location:  36.95°N, 88.73°W
Report Text: KPAH 181253Z 05005KT 6SM BR BKN006 OVC037 01/M01 A3025 RMK AO2 SLP248 T00061006
Loading
Personal Weather Stations






























Interactive Weather Map New forecast layout! Learn more

10-Day Weather Forecast

Advertisements
Track Severe Weather on mobile